Time;durP1;ratioP1;P1;durP2;ratioP2;P2;SDS_P1;SDS_P2;PMS_P1;PMS_P2;Temp;Humidity;BMP_temperature;BMP_pressure;BME280_temperature;BME280_humidity;BME280_pressure;Samples;Min_cycle;Max_cycle;Signal;HPM_P1;HPM_P2
2023/06/21 00:02:03;;;;;;;9.05;6.32;;;18.70;96.40;;;;;;4971286;28;92389;-92
2023/06/21 00:04:29;;;;;;;8.20;6.20;;;18.70;96.30;;;;;;4971929;28;87740;-87
2023/06/21 00:06:54;;;;;;;7.60;6.13;;;18.70;96.30;;;;;;4971487;28;90367;-93
2023/06/21 00:09:21;;;;;;;7.32;5.55;;;18.70;96.40;;;;;;4939065;28;91252;-93
2023/06/21 00:11:46;;;;;;;8.65;6.30;;;18.70;96.20;;;;;;4972513;28;91141;-93
2023/06/21 00:14:12;;;;;;;7.28;6.07;;;18.70;96.10;;;;;;4971662;28;87343;-93
2023/06/21 00:16:38;;;;;;;10.50;7.78;;;18.70;96.20;;;;;;4971891;28;90113;-90
2023/06/21 00:19:03;;;;;;;8.82;7.32;;;18.60;96.40;;;;;;4971384;28;90693;-92
2023/06/21 00:21:29;;;;;;;10.40;6.63;;;18.60;96.50;;;;;;4971142;28;90843;-92
2023/06/21 00:23:54;;;;;;;9.05;7.00;;;18.60;96.50;;;;;;4972352;28;88699;-90
2023/06/21 00:26:20;;;;;;;10.07;7.65;;;18.60;97.00;;;;;;4929923;28;89057;-91
2023/06/21 00:28:46;;;;;;;12.60;7.75;;;18.50;97.00;;;;;;4934769;28;91528;-88
2023/06/21 00:31:11;;;;;;;11.02;8.32;;;18.50;97.30;;;;;;4971114;28;91521;-92
2023/06/21 00:33:38;;;;;;;12.13;7.97;;;18.50;97.50;;;;;;4971398;28;87920;-92
2023/06/21 00:36:03;;;;;;;12.32;8.57;;;18.50;97.50;;;;;;4972339;28;88205;-94
2023/06/21 00:38:34;;;;;;;16.13;9.05;;;18.50;97.60;;;;;;4938159;28;91182;-93
2023/06/21 00:41:04;;;;;;;12.27;9.50;;;18.50;97.70;;;;;;4938646;28;91166;-92
2023/06/21 00:43:30;;;;;;;13.77;9.15;;;18.40;97.80;;;;;;4937848;28;87831;-93
2023/06/21 00:45:57;;;;;;;14.75;8.80;;;18.50;97.90;;;;;;4970437;28;90672;-92
2023/06/21 00:48:23;;;;;;;11.93;9.05;;;18.50;97.80;;;;;;4970811;28;91191;-87
2023/06/21 00:50:49;;;;;;;13.07;8.40;;;18.40;97.80;;;;;;4971407;28;91887;-91
2023/06/21 00:53:15;;;;;;;15.52;9.43;;;18.50;97.70;;;;;;4954008;28;88458;-92
2023/06/21 00:55:40;;;;;;;15.82;9.60;;;18.50;97.70;;;;;;4930117;28;89118;-92
2023/06/21 00:58:08;;;;;;;11.57;8.75;;;18.50;97.80;;;;;;4970496;28;90500;-91
2023/06/21 01:00:35;;;;;;;13.98;8.90;;;18.50;97.70;;;;;;4970035;28;91614;-93
2023/06/21 01:03:00;;;;;;;14.43;8.30;;;18.50;97.60;;;;;;4972162;28;87439;-91
2023/06/21 01:05:30;;;;;;;19.50;8.68;;;18.50;97.50;;;;;;4971175;28;88878;-91
2023/06/21 01:08:05;;;;;;;12.38;7.78;;;18.50;97.30;;;;;;4970838;28;90379;-91
2023/06/21 01:10:36;;;;;;;12.68;6.82;;;18.50;97.10;;;;;;4954692;28;91255;-90
2023/06/21 01:13:28;;;;;;;12.00;8.07;;;18.50;97.10;;;;;;4954285;28;88462;-90
2023/06/21 01:16:17;;;;;;;13.73;8.60;;;18.50;97.10;;;;;;4970898;28;90782;-89
2023/06/21 01:18:45;;;;;;;10.43;8.48;;;18.50;96.90;;;;;;4937559;28;93013;-93
2023/06/21 01:21:17;;;;;;;12.90;8.68;;;18.50;97.00;;;;;;4970899;28;90334;-90
2023/06/21 01:23:59;;;;;;;8.47;7.13;;;18.50;96.90;;;;;;4971197;28;87379;-91
2023/06/21 01:26:29;;;;;;;11.18;7.00;;;18.40;96.60;;;;;;4961828;28;90073;-92
2023/06/21 01:29:11;;;;;;;9.75;7.03;;;18.40;96.40;;;;;;4944314;28;91546;-89
2023/06/21 01:31:39;;;;;;;13.60;7.63;;;18.40;96.20;;;;;;4933932;28;91433;-91
2023/06/21 01:34:05;;;;;;;10.25;6.32;;;18.40;96.50;;;;;;4937697;28;87704;-91
2023/06/21 01:36:33;;;;;;;12.57;8.15;;;18.40;95.90;;;;;;4970792;28;88255;-92
2023/06/21 01:38:59;;;;;;;13.60;8.18;;;18.40;96.30;;;;;;4970376;28;92050;-92
2023/06/21 01:41:25;;;;;;;15.18;8.15;;;18.40;96.20;;;;;;4970002;28;92411;-86
2023/06/21 01:43:52;;;;;;;12.45;7.53;;;18.40;96.10;;;;;;4938275;28;87815;-93
2023/06/21 01:46:20;;;;;;;11.25;8.77;;;18.30;96.00;;;;;;4953085;28;90199;-90
2023/06/21 01:48:48;;;;;;;13.63;9.43;;;18.30;96.70;;;;;;4969834;28;91038;-87
2023/06/21 01:51:16;;;;;;;12.85;9.30;;;18.30;96.70;;;;;;4927325;28;90127;-90
2023/06/21 01:53:42;;;;;;;15.75;9.98;;;18.30;96.70;;;;;;4930333;28;87705;-89
2023/06/21 01:56:11;;;;;;;12.80;9.32;;;18.30;97.00;;;;;;4928858;28;90599;-92
2023/06/21 01:58:37;;;;;;;16.10;10.00;;;18.20;97.10;;;;;;4970266;28;91513;-92
2023/06/21 02:01:03;;;;;;;16.58;9.95;;;18.20;97.50;;;;;;4927382;28;91238;-89
2023/06/21 02:03:31;;;;;;;16.88;10.43;;;18.20;97.40;;;;;;4969446;28;88543;-93
2023/06/21 02:06:03;;;;;;;18.73;10.50;;;18.10;97.60;;;;;;4953215;28;89106;-92
2023/06/21 02:08:30;;;;;;;16.58;10.27;;;18.20;97.70;;;;;;4928185;28;90102;-91
2023/06/21 02:10:57;;;;;;;17.67;9.43;;;18.10;97.70;;;;;;4952338;28;91178;-91
2023/06/21 02:13:26;;;;;;;19.40;10.80;;;18.10;97.70;;;;;;4970131;28;88101;-88
2023/06/21 02:15:55;;;;;;;15.10;9.50;;;18.10;97.60;;;;;;4936757;28;90159;-91
2023/06/21 02:18:25;;;;;;;13.60;9.93;;;18.10;97.70;;;;;;4969876;28;91509;-89
2023/06/21 02:20:53;;;;;;;11.57;8.23;;;18.10;97.50;;;;;;4938851;28;90278;-93
2023/06/21 02:23:19;;;;;;;10.63;8.10;;;18.10;97.30;;;;;;4970744;28;87547;-92
2023/06/21 02:25:45;;;;;;;14.52;8.07;;;18.10;97.20;;;;;;4970021;28;89122;-92
2023/06/21 02:28:10;;;;;;;14.70;8.73;;;18.10;96.90;;;;;;4969073;28;90152;-88
2023/06/21 02:30:36;;;;;;;11.02;8.35;;;18.10;96.90;;;;;;4969789;28;92520;-91
2023/06/21 02:33:01;;;;;;;9.93;7.72;;;18.10;96.90;;;;;;4970630;28;87848;-91
2023/06/21 02:35:27;;;;;;;9.52;6.85;;;18.10;96.70;;;;;;4969939;28;90627;-91
2023/06/21 02:37:53;;;;;;;13.43;7.93;;;18.10;96.40;;;;;;4936793;28;91047;-92
2023/06/21 02:40:18;;;;;;;12.70;7.57;;;18.10;96.40;;;;;;4937261;28;90255;-86
2023/06/21 02:42:44;;;;;;;11.07;7.07;;;18.10;96.20;;;;;;4969332;28;87878;-93
2023/06/21 02:45:10;;;;;;;12.15;8.25;;;18.00;96.20;;;;;;4969756;28;90052;-88
2023/06/21 02:47:36;;;;;;;10.75;7.25;;;18.10;96.20;;;;;;4969900;28;91373;-91
2023/06/21 02:50:03;;;;;;;10.77;7.70;;;18.00;96.10;;;;;;4968498;28;89840;-89
2023/06/21 02:52:29;;;;;;;10.50;7.03;;;18.00;96.20;;;;;;4968898;28;88051;-92
2023/06/21 02:54:55;;;;;;;11.73;7.20;;;18.00;96.00;;;;;;4969517;28;89119;-94
2023/06/21 02:57:20;;;;;;;13.10;8.30;;;18.00;95.80;;;;;;4968461;28;90335;-93
2023/06/21 02:59:48;;;;;;;10.35;7.38;;;18.00;96.00;;;;;;4970155;28;90135;-87
2023/06/21 03:02:13;;;;;;;11.02;8.15;;;18.00;96.10;;;;;;4969036;28;87664;-91
2023/06/21 03:04:39;;;;;;;9.15;6.95;;;18.00;96.10;;;;;;4969177;28;90251;-90
2023/06/21 03:07:05;;;;;;;8.35;7.35;;;17.90;96.10;;;;;;4968244;28;90201;-92
2023/06/21 03:09:32;;;;;;;11.27;7.22;;;17.90;96.00;;;;;;4928079;28;91322;-92
2023/06/21 03:11:58;;;;;;;11.27;7.85;;;17.90;95.90;;;;;;4968590;28;87735;-92
2023/06/21 03:14:23;;;;;;;10.85;7.13;;;17.90;95.90;;;;;;4968620;28;90075;-91
2023/06/21 03:16:52;;;;;;;9.63;7.95;;;17.80;96.10;;;;;;4967394;28;91270;-93
2023/06/21 03:19:18;;;;;;;10.32;8.13;;;17.90;96.30;;;;;;4952082;28;90909;-91
2023/06/21 03:21:43;;;;;;;10.90;8.18;;;17.90;96.50;;;;;;4929052;28;87666;-92
2023/06/21 03:24:09;;;;;;;10.35;7.85;;;17.90;96.50;;;;;;4969762;28;88353;-92
2023/06/21 03:26:35;;;;;;;17.80;9.75;;;17.90;96.50;;;;;;4917204;28;95218;-92
2023/06/21 03:29:02;;;;;;;16.80;9.27;;;17.90;96.90;;;;;;4916180;28;90086;-92
2023/06/21 03:31:28;;;;;;;9.30;7.63;;;17.90;97.00;;;;;;4916857;28;87448;-91
2023/06/21 03:33:54;;;;;;;16.13;10.32;;;18.00;96.60;;;;;;4931699;28;90313;-92
2023/06/21 03:36:20;;;;;;;15.45;9.52;;;17.90;96.80;;;;;;4916062;28;90271;-91
2023/06/21 03:38:45;;;;;;;16.63;9.80;;;18.00;97.00;;;;;;4917751;28;90018;-90
2023/06/21 03:41:11;;;;;;;20.20;11.00;;;18.00;97.00;;;;;;4916824;28;88369;-92
2023/06/21 03:43:37;;;;;;;15.63;11.40;;;18.00;97.30;;;;;;4916731;28;90139;-92
2023/06/21 03:46:02;;;;;;;15.93;11.25;;;18.00;97.50;;;;;;4915560;28;90234;-91
2023/06/21 03:48:28;;;;;;;18.98;10.98;;;17.90;97.50;;;;;;4915549;28;89895;-91
2023/06/21 03:50:54;;;;;;;16.73;12.20;;;18.00;97.80;;;;;;4917363;28;87566;-92
2023/06/21 03:53:19;;;;;;;18.45;11.43;;;18.00;97.90;;;;;;4932572;28;90981;-92
2023/06/21 03:55:45;;;;;;;18.58;10.40;;;18.00;97.90;;;;;;4934488;28;90228;-89
2023/06/21 03:58:12;;;;;;;22.73;12.48;;;18.00;97.90;;;;;;4934884;28;91365;-92
2023/06/21 04:00:38;;;;;;;18.65;10.95;;;18.00;98.10;;;;;;4934513;28;87635;-91
2023/06/21 04:03:03;;;;;;;18.17;12.13;;;18.00;98.10;;;;;;4936162;28;89279;-91
2023/06/21 04:05:29;;;;;;;19.23;12.35;;;18.00;98.10;;;;;;4934395;28;90911;-92
2023/06/21 04:07:55;;;;;;;16.35;12.45;;;18.00;98.30;;;;;;4935249;28;92173;-87
2023/06/21 04:10:20;;;;;;;24.40;12.75;;;18.00;98.30;;;;;;4935182;28;87466;-94
2023/06/21 04:12:46;;;;;;;24.08;12.45;;;18.10;98.40;;;;;;4926049;28;89219;-92
2023/06/21 04:15:12;;;;;;;19.60;13.48;;;18.10;98.30;;;;;;4935637;28;91458;-92
2023/06/21 04:17:37;;;;;;;20.52;13.65;;;18.10;98.60;;;;;;4968007;28;91312;-90
2023/06/21 04:20:11;;;;;;;20.40;14.52;;;18.20;98.80;;;;;;4938085;28;87073;-87
2023/06/21 04:22:41;;;;;;;35.75;14.57;;;18.10;98.90;;;;;;4937565;28;90359;-92
2023/06/21 04:25:11;;;;;;;22.27;14.60;;;18.20;99.10;;;;;;4928120;28;91825;-91
2023/06/21 04:27:39;;;;;;;19.80;14.68;;;18.20;99.10;;;;;;4938074;28;91867;-91
2023/06/21 04:30:09;;;;;;;23.25;15.02;;;18.20;99.20;;;;;;4930314;28;88626;-90
2023/06/21 04:32:34;;;;;;;29.30;15.95;;;18.30;99.20;;;;;;4932785;28;90484;-91
2023/06/21 04:35:00;;;;;;;22.00;14.43;;;18.30;99.20;;;;;;4937962;28;91362;-93
2023/06/21 04:37:26;;;;;;;22.60;14.07;;;18.30;99.30;;;;;;4970058;28;90991;-91
2023/06/21 04:39:55;;;;;;;23.55;14.02;;;18.40;99.30;;;;;;4937877;28;87460;-87
2023/06/21 04:42:21;;;;;;;23.13;13.30;;;18.40;99.20;;;;;;4937952;28;90256;-90
2023/06/21 04:44:49;;;;;;;20.00;13.55;;;18.50;99.10;;;;;;4938486;28;90313;-89
2023/06/21 04:47:16;;;;;;;30.77;14.85;;;18.50;99.00;;;;;;4935993;28;91136;-91
2023/06/21 04:49:41;;;;;;;26.88;15.23;;;18.60;99.10;;;;;;4928699;28;87697;-86
2023/06/21 04:52:09;;;;;;;25.27;15.10;;;18.60;99.20;;;;;;4937436;28;89191;-90
2023/06/21 04:54:35;;;;;;;31.33;15.88;;;18.70;99.30;;;;;;4934182;28;92490;-90
2023/06/21 04:57:00;;;;;;;26.95;14.85;;;18.80;99.40;;;;;;4938417;28;90262;-89
2023/06/21 04:59:26;;;;;;;20.58;15.73;;;18.80;99.30;;;;;;4937507;28;87288;-87
2023/06/21 05:01:52;;;;;;;27.45;14.73;;;18.90;99.20;;;;;;4938156;28;90636;-86
2023/06/21 05:04:17;;;;;;;24.73;14.75;;;19.00;99.30;;;;;;4935976;28;91366;-88
2023/06/21 05:06:43;;;;;;;25.48;15.57;;;19.10;99.10;;;;;;4935038;28;92030;-86
2023/06/21 05:09:08;;;;;;;18.58;14.25;;;19.20;99.00;;;;;;4936163;28;87179;-89
2023/06/21 05:11:36;;;;;;;24.98;14.25;;;19.30;99.00;;;;;;4967985;28;89027;-87
2023/06/21 05:14:02;;;;;;;20.27;14.82;;;19.40;99.00;;;;;;4927455;28;90370;-87
2023/06/21 05:16:27;;;;;;;25.83;15.88;;;19.50;98.90;;;;;;4934803;28;90140;-86
2023/06/21 05:18:53;;;;;;;21.05;14.77;;;19.50;98.70;;;;;;4935681;28;89132;-85
2023/06/21 05:21:19;;;;;;;26.88;14.77;;;19.60;98.50;;;;;;4937483;28;89863;-88
2023/06/21 05:23:44;;;;;;;27.05;15.10;;;19.70;98.30;;;;;;4938529;28;91075;-87
2023/06/21 05:26:10;;;;;;;27.00;15.38;;;19.70;98.10;;;;;;4938190;28;91600;-88
2023/06/21 05:28:35;;;;;;;21.95;14.52;;;19.80;98.10;;;;;;4938020;28;87641;-88
2023/06/21 05:31:01;;;;;;;20.25;14.00;;;19.80;98.10;;;;;;4936843;28;90581;-85
2023/06/21 05:33:27;;;;;;;22.92;13.73;;;19.90;98.00;;;;;;4937387;28;90561;-87
2023/06/21 05:35:52;;;;;;;22.50;14.63;;;20.00;97.70;;;;;;4938493;28;90862;-83
2023/06/21 05:38:18;;;;;;;23.35;13.52;;;20.00;97.70;;;;;;4936795;28;87871;-88
2023/06/21 05:40:44;;;;;;;21.45;14.13;;;20.10;97.60;;;;;;4937895;28;90210;-88
2023/06/21 05:43:09;;;;;;;25.50;14.85;;;20.20;97.30;;;;;;4936755;28;92477;-87
2023/06/21 05:45:36;;;;;;;25.35;14.88;;;20.20;97.40;;;;;;4936339;28;91592;-86
2023/06/21 05:48:02;;;;;;;21.63;14.23;;;20.30;97.30;;;;;;4938568;28;87478;-86
2023/06/21 05:50:30;;;;;;;24.13;14.48;;;20.30;96.90;;;;;;4937079;28;89899;-87
2023/06/21 05:52:57;;;;;;;20.67;14.30;;;20.40;97.00;;;;;;4937488;28;90466;-85
2023/06/21 05:55:23;;;;;;;20.63;13.85;;;20.60;97.10;;;;;;4936767;28;91113;-84
2023/06/21 05:57:49;;;;;;;25.63;14.75;;;20.60;96.60;;;;;;4937259;28;87299;-85
2023/06/21 06:00:16;;;;;;;23.30;13.52;;;20.70;96.50;;;;;;4937591;28;90233;-87
2023/06/21 06:02:41;;;;;;;21.58;15.30;;;20.80;96.30;;;;;;4937918;28;91229;-89
2023/06/21 06:05:07;;;;;;;25.73;14.23;;;20.80;96.00;;;;;;4937015;28;90049;-90
2023/06/21 06:07:33;;;;;;;21.35;14.90;;;20.80;96.10;;;;;;4936334;28;88889;-85
2023/06/21 06:09:59;;;;;;;19.50;13.57;;;20.90;96.10;;;;;;4936705;28;90148;-90
2023/06/21 06:12:24;;;;;;;21.77;14.98;;;21.00;95.50;;;;;;4936950;28;90367;-89
2023/06/21 06:14:50;;;;;;;21.63;14.43;;;21.00;95.60;;;;;;4937903;28;91401;-89
2023/06/21 06:17:16;;;;;;;18.95;13.98;;;21.00;95.40;;;;;;4937166;28;87887;-92
2023/06/21 06:19:42;;;;;;;25.02;14.35;;;21.00;94.80;;;;;;4937021;28;89166;-92
2023/06/21 06:22:08;;;;;;;17.92;13.43;;;21.00;94.90;;;;;;4929222;28;91508;-90
2023/06/21 06:24:33;;;;;;;22.50;14.70;;;21.00;95.10;;;;;;4936652;28;90094;-87
2023/06/21 06:26:59;;;;;;;23.23;14.55;;;21.00;95.10;;;;;;4938016;28;87094;-92
2023/06/21 06:29:25;;;;;;;23.02;14.88;;;21.00;94.80;;;;;;4937087;28;89185;-87
2023/06/21 06:31:51;;;;;;;18.63;14.68;;;21.10;94.90;;;;;;4936706;28;91944;-90
2023/06/21 06:34:17;;;;;;;21.30;14.02;;;21.10;95.00;;;;;;4936671;28;91449;-92
2023/06/21 06:36:43;;;;;;;18.88;14.05;;;21.10;94.90;;;;;;4928774;28;87371;-87
2023/06/21 06:39:09;;;;;;;22.38;13.30;;;21.20;94.80;;;;;;4937477;28;91306;-87
2023/06/21 06:41:34;;;;;;;24.23;14.10;;;21.20;94.50;;;;;;4936168;28;94989;-87
2023/06/21 06:44:00;;;;;;;20.45;13.55;;;21.20;94.20;;;;;;4918862;28;90132;-93
2023/06/21 06:46:26;;;;;;;19.55;14.48;;;21.20;94.30;;;;;;4910032;28;87838;-91
2023/06/21 06:48:51;;;;;;;19.27;14.38;;;21.20;94.20;;;;;;4910480;28;90276;-91
2023/06/21 06:51:17;;;;;;;19.13;14.48;;;21.30;94.30;;;;;;4916673;28;91227;-89
2023/06/21 06:53:42;;;;;;;21.90;15.23;;;21.30;94.10;;;;;;4935256;28;91153;-91
2023/06/21 06:56:08;;;;;;;18.23;14.20;;;21.20;93.90;;;;;;4934374;28;88333;-90
2023/06/21 06:58:35;;;;;;;16.40;13.43;;;21.30;94.20;;;;;;4935417;28;90627;-86
2023/06/21 07:01:05;;;;;;;19.65;13.15;;;21.30;94.40;;;;;;4934220;28;91018;-91
2023/06/21 07:03:32;;;;;;;18.10;12.77;;;21.40;93.90;;;;;;4949757;28;91576;-91
2023/06/21 07:05:58;;;;;;;17.40;11.40;;;21.40;93.80;;;;;;4968307;28;87760;-88
2023/06/21 07:08:24;;;;;;;15.55;11.43;;;21.50;93.10;;;;;;4950755;28;89106;-91
2023/06/21 07:10:49;;;;;;;15.35;11.93;;;21.50;93.40;;;;;;4953530;28;92442;-90
2023/06/21 07:13:16;;;;;;;16.30;12.00;;;21.50;93.50;;;;;;4916392;28;91106;-89
2023/06/21 07:15:42;;;;;;;16.70;12.48;;;21.60;93.40;;;;;;4915921;28;87903;-91
2023/06/21 07:18:07;;;;;;;14.60;11.15;;;21.70;93.60;;;;;;4916338;28;90265;-90
2023/06/21 07:20:34;;;;;;;15.20;11.45;;;21.70;92.70;;;;;;4915890;28;92144;-90
2023/06/21 07:23:00;;;;;;;14.10;11.10;;;21.80;93.00;;;;;;4915688;28;91255;-89
2023/06/21 07:25:25;;;;;;;13.73;10.32;;;21.80;92.10;;;;;;4916254;28;87638;-89
2023/06/21 07:27:51;;;;;;;14.85;11.18;;;21.90;92.00;;;;;;4916271;28;90215;-91
2023/06/21 07:30:18;;;;;;;15.50;11.38;;;22.00;92.20;;;;;;4915626;28;91827;-88
2023/06/21 07:32:43;;;;;;;12.07;8.25;;;22.20;92.20;;;;;;4932556;28;91240;-90
2023/06/21 07:35:09;;;;;;;10.75;6.90;;;22.30;90.50;;;;;;4915182;28;87772;-90
2023/06/21 07:37:35;;;;;;;13.95;7.63;;;22.20;89.10;;;;;;4916934;28;90521;-90
2023/06/21 07:40:01;;;;;;;9.07;6.63;;;22.20;88.70;;;;;;4916774;28;91134;-90
2023/06/21 07:42:26;;;;;;;9.95;6.40;;;22.30;88.50;;;;;;4915780;28;91463;-85
2023/06/21 07:44:53;;;;;;;12.73;6.90;;;22.30;85.40;;;;;;4916849;28;88249;-90
2023/06/21 07:47:19;;;;;;;10.25;6.80;;;22.30;86.40;;;;;;4916304;28;90252;-90
2023/06/21 07:49:45;;;;;;;12.90;7.43;;;22.30;87.30;;;;;;4915921;28;91307;-90
2023/06/21 07:52:11;;;;;;;9.65;6.60;;;22.40;88.20;;;;;;4921004;28;90168;-89
2023/06/21 07:54:37;;;;;;;13.68;8.00;;;22.40;88.20;;;;;;4915352;28;87605;-89
2023/06/21 07:57:03;;;;;;;10.70;7.55;;;22.50;87.70;;;;;;4939322;28;90246;-88
2023/06/21 07:59:30;;;;;;;7.10;5.78;;;22.50;87.80;;;;;;4938888;28;89909;-87
2023/06/21 08:01:55;;;;;;;7.90;6.20;;;22.60;84.70;;;;;;4939189;28;91135;-84
2023/06/21 08:04:21;;;;;;;6.93;5.60;;;22.60;84.80;;;;;;4972368;28;87412;-87
2023/06/21 08:06:46;;;;;;;10.23;6.68;;;22.80;86.40;;;;;;4971214;28;89072;-89
2023/06/21 08:09:12;;;;;;;12.43;7.10;;;22.90;85.40;;;;;;4970671;28;91349;-87
2023/06/21 08:11:38;;;;;;;10.77;6.13;;;23.00;85.90;;;;;;4972599;28;91949;-87
2023/06/21 08:14:03;;;;;;;9.23;5.93;;;23.20;84.50;;;;;;4961412;28;87750;-86
2023/06/21 08:16:29;;;;;;;5.57;4.70;;;23.30;83.50;;;;;;4933623;28;89339;-85
2023/06/21 08:18:55;;;;;;;4.57;3.67;;;23.40;82.40;;;;;;4938969;28;91513;-86
2023/06/21 08:21:20;;;;;;;6.10;4.65;;;23.50;79.30;;;;;;4970498;28;90038;-86
2023/06/21 08:23:46;;;;;;;8.38;5.22;;;23.50;77.40;;;;;;4973177;28;87535;-86
2023/06/21 08:26:11;;;;;;;7.22;5.18;;;23.60;77.90;;;;;;4922318;28;90123;-87
2023/06/21 08:28:37;;;;;;;7.88;5.40;;;23.70;81.10;;;;;;4929241;28;91137;-85
2023/06/21 08:31:03;;;;;;;8.90;5.25;;;23.80;80.10;;;;;;4970753;28;90998;-86
2023/06/21 08:33:28;;;;;;;5.90;5.00;;;23.90;77.20;;;;;;4970122;28;88713;-84
2023/06/21 08:35:54;;;;;;;7.35;4.70;;;23.90;77.00;;;;;;4971204;28;90153;-87
2023/06/21 08:38:19;;;;;;;6.50;5.65;;;24.00;77.10;;;;;;4971494;28;91843;-86
2023/06/21 08:40:46;;;;;;;7.13;5.30;;;24.00;77.00;;;;;;4971238;28;90593;-86
2023/06/21 08:43:12;;;;;;;6.75;5.35;;;24.10;76.00;;;;;;4938468;28;87670;-86
2023/06/21 08:45:37;;;;;;;12.20;6.13;;;24.20;76.40;;;;;;4938370;28;89066;-85
2023/06/21 08:48:05;;;;;;;8.07;4.82;;;24.10;74.70;;;;;;4971789;28;90151;-86
2023/06/21 08:50:36;;;;;;;8.75;5.82;;;24.20;76.60;;;;;;4928372;28;90445;-85
2023/06/21 08:53:06;;;;;;;7.43;5.75;;;24.20;75.20;;;;;;4931102;28;87613;-87
2023/06/21 08:55:35;;;;;;;12.50;5.63;;;24.20;76.40;;;;;;4937909;28;88948;-85
2023/06/21 08:58:09;;;;;;;11.68;6.68;;;24.30;75.00;;;;;;4970085;28;91076;-85
2023/06/21 09:00:43;;;;;;;9.82;6.47;;;24.50;74.30;;;;;;4970529;28;90238;-86
2023/06/21 09:03:25;;;;;;;11.88;6.68;;;24.50;75.60;;;;;;4971326;28;87759;-86
2023/06/21 09:06:11;;;;;;;13.18;6.47;;;24.60;75.10;;;;;;4936129;28;94612;-86
2023/06/21 09:08:40;;;;;;;9.77;6.40;;;24.60;73.40;;;;;;4938515;28;95869;-87
2023/06/21 09:11:07;;;;;;;10.27;7.38;;;24.60;73.60;;;;;;4937178;28;91057;-86
2023/06/21 09:13:34;;;;;;;10.10;6.85;;;24.60;72.60;;;;;;4929007;28;87920;-84
2023/06/21 09:16:02;;;;;;;11.00;7.57;;;24.60;74.50;;;;;;4970785;28;90432;-87
2023/06/21 09:18:35;;;;;;;10.38;7.55;;;24.70;73.00;;;;;;4937832;28;90314;-86
2023/06/21 09:21:02;;;;;;;10.18;6.57;;;24.80;74.40;;;;;;4971316;28;91292;-86
2023/06/21 09:23:28;;;;;;;10.52;6.28;;;25.00;72.30;;;;;;4968667;28;90019;-87
2023/06/21 09:25:55;;;;;;;8.95;6.60;;;25.10;72.50;;;;;;4969555;28;90051;-85
2023/06/21 09:28:21;;;;;;;8.95;6.82;;;25.20;72.00;;;;;;4970741;28;91053;-85
2023/06/21 09:30:47;;;;;;;13.50;5.85;;;25.30;71.30;;;;;;4922171;28;90140;-87
2023/06/21 09:33:13;;;;;;;7.63;5.55;;;25.30;70.30;;;;;;4933767;28;87733;-85
2023/06/21 09:35:40;;;;;;;7.13;5.40;;;25.30;70.40;;;;;;4970778;28;89045;-88
2023/06/21 09:38:23;;;;;;;9.25;5.97;;;25.50;70.20;;;;;;4928693;28;90355;-87
2023/06/21 09:40:49;;;;;;;11.85;6.03;;;25.50;71.20;;;;;;4937298;28;90748;-87
2023/06/21 09:43:15;;;;;;;6.80;5.25;;;25.60;69.70;;;;;;4970322;28;87892;-83
2023/06/21 09:45:41;;;;;;;9.60;5.88;;;25.70;69.30;;;;;;4937706;28;89865;-85
2023/06/21 09:48:07;;;;;;;9.25;5.18;;;25.80;69.90;;;;;;4938023;28;92064;-86
2023/06/21 09:50:41;;;;;;;5.63;4.03;;;25.90;68.50;;;;;;4969491;28;91959;-85
2023/06/21 09:53:11;;;;;;;7.50;4.40;;;25.90;64.80;;;;;;4953736;28;87679;-85
2023/06/21 09:55:36;;;;;;;5.88;4.50;;;25.90;67.80;;;;;;4970257;28;89451;-86
2023/06/21 09:58:03;;;;;;;7.07;4.55;;;26.00;67.60;;;;;;4969966;28;90062;-85
2023/06/21 10:00:35;;;;;;;5.82;4.30;;;26.00;65.30;;;;;;4953374;28;91592;-85
2023/06/21 10:03:02;;;;;;;5.68;4.13;;;26.00;67.60;;;;;;4970952;28;87464;-85
2023/06/21 10:05:28;;;;;;;5.70;4.15;;;26.20;66.40;;;;;;4928176;28;90623;-85
2023/06/21 10:07:54;;;;;;;7.97;4.93;;;26.20;64.80;;;;;;4969531;28;91110;-85
2023/06/21 10:10:20;;;;;;;7.45;5.43;;;26.20;67.10;;;;;;4969853;28;90017;-85
2023/06/21 10:12:55;;;;;;;16.90;5.30;;;26.30;66.10;;;;;;4969873;28;88659;-85
2023/06/21 10:15:21;;;;;;;5.10;3.97;;;26.50;65.50;;;;;;4936064;28;89365;-86
2023/06/21 10:17:47;;;;;;;7.78;4.30;;;26.60;64.40;;;;;;4970018;28;91210;-86
2023/06/21 10:20:17;;;;;;;8.15;3.80;;;26.60;64.20;;;;;;4968698;28;90332;-85
2023/06/21 10:22:51;;;;;;;6.90;4.70;;;26.80;65.20;;;;;;4929200;28;87384;-88
2023/06/21 10:25:20;;;;;;;4.03;3.63;;;27.00;64.20;;;;;;4928567;28;90235;-86
2023/06/21 10:27:46;;;;;;;4.70;3.60;;;27.10;63.40;;;;;;4953170;28;90398;-85
2023/06/21 10:30:19;;;;;;;7.60;4.00;;;27.30;62.40;;;;;;4937158;28;91087;-86
2023/06/21 10:32:47;;;;;;;8.95;3.92;;;27.40;62.10;;;;;;4929674;28;87583;-85
2023/06/21 10:35:16;;;;;;;5.20;3.28;;;27.40;63.00;;;;;;4969660;28;89037;-85
2023/06/21 10:37:59;;;;;;;9.57;4.63;;;27.50;61.00;;;;;;4967929;28;92600;-85
2023/06/21 10:40:25;;;;;;;;;;;27.50;60.10;;;;;;4937295;28;92398;-84
2023/06/21 10:42:53;;;;;;;4.90;2.92;;;27.50;61.90;;;;;;4938115;28;87645;-84
2023/06/21 10:45:19;;;;;;;6.22;3.47;;;27.80;60.20;;;;;;4968125;28;89909;-85
2023/06/21 10:47:47;;;;;;;9.02;3.30;;;27.80;59.50;;;;;;4969765;28;90369;-83
2023/06/21 10:50:14;;;;;;;3.58;2.83;;;27.80;59.90;;;;;;4936050;28;91212;-83
2023/06/21 10:52:40;;;;;;;4.47;3.33;;;27.90;60.80;;;;;;4968985;28;87581;-86
2023/06/21 10:55:06;;;;;;;3.38;2.95;;;28.00;58.60;;;;;;4969437;28;90234;-85
2023/06/21 10:57:34;;;;;;;7.65;3.30;;;28.10;58.00;;;;;;4936057;28;87461;-86
2023/06/21 11:00:05;;;;;;;4.70;3.47;;;28.10;60.20;;;;;;4969918;28;91205;-85
2023/06/21 11:02:32;;;;;;;3.65;2.97;;;28.30;58.90;;;;;;4968590;28;88555;-86
2023/06/21 11:05:21;;;;;;;4.70;3.33;;;28.40;58.20;;;;;;4935936;28;89702;-86
2023/06/21 11:08:01;;;;;;;4.53;2.85;;;28.40;57.40;;;;;;4936147;28;90451;-85
2023/06/21 11:10:39;;;;;;;5.60;3.67;;;28.40;58.00;;;;;;4932532;28;91396;-85
2023/06/21 11:13:05;;;;;;;4.70;3.03;;;28.60;58.60;;;;;;4929182;28;87284;-85
2023/06/21 11:15:32;;;;;;;5.22;3.55;;;28.90;58.60;;;;;;4952457;28;88747;-84
2023/06/21 11:18:05;;;;;;;3.03;2.72;;;29.00;56.30;;;;;;4928917;28;89208;-85
2023/06/21 11:20:42;;;;;;;;;;;29.00;56.80;;;;;;4937282;28;91105;-85
2023/06/21 11:23:09;;;;;;;7.13;3.63;;;29.20;55.00;;;;;;4937540;28;87864;-85
2023/06/21 11:25:38;;;;;;;7.25;3.30;;;29.10;54.80;;;;;;4927538;28;90201;-86
2023/06/21 11:28:19;;;;;;;3.72;2.90;;;29.00;55.90;;;;;;4967004;28;92587;-84
2023/06/21 11:31:03;;;;;;;4.25;3.33;;;29.10;54.60;;;;;;4951816;28;91067;-86
2023/06/21 11:33:31;;;;;;;5.38;3.20;;;29.20;54.50;;;;;;4968823;28;87584;-86
2023/06/21 11:36:06;;;;;;;7.40;4.05;;;29.20;54.80;;;;;;4927978;28;90324;-85
2023/06/21 11:38:33;;;;;;;4.65;3.10;;;29.20;55.40;;;;;;4967094;28;90334;-83
2023/06/21 11:40:59;;;;;;;5.20;3.20;;;29.30;54.90;;;;;;4934953;28;91056;-86
2023/06/21 11:43:25;;;;;;;6.53;3.50;;;29.50;54.50;;;;;;4936160;28;87441;-85
2023/06/21 11:46:00;;;;;;;3.90;2.92;;;29.70;56.60;;;;;;4933812;28;89279;-83
2023/06/21 11:48:39;;;;;;;4.18;2.65;;;30.10;54.70;;;;;;4935573;28;92084;-86
2023/06/21 11:51:09;;;;;;;4.45;2.70;;;30.40;56.20;;;;;;4967839;28;91957;-86
2023/06/21 11:53:42;;;;;;;8.38;3.63;;;30.70;53.30;;;;;;4935376;28;88567;-85
2023/06/21 11:56:09;;;;;;;7.63;3.10;;;30.70;53.80;;;;;;4935052;28;90133;-84
2023/06/21 11:58:35;;;;;;;5.07;3.05;;;30.80;53.40;;;;;;4968106;28;90321;-84
2023/06/21 12:01:03;;;;;;;4.78;2.78;;;31.00;50.00;;;;;;4967847;28;90190;-84
2023/06/21 12:03:28;;;;;;;3.83;2.95;;;31.00;49.90;;;;;;4904617;28;87365;-84
2023/06/21 12:06:02;;;;;;;9.07;3.03;;;30.90;50.20;;;;;;4959658;28;91842;-83
2023/06/21 12:08:37;;;;;;;5.45;2.47;;;30.70;51.80;;;;;;4935246;28;90970;-85
2023/06/21 12:11:05;;;;;;;3.78;2.70;;;30.50;52.50;;;;;;4951669;28;91142;-83
2023/06/21 12:13:32;;;;;;;4.10;2.70;;;30.50;52.80;;;;;;4927001;28;87583;-85
2023/06/21 12:16:00;;;;;;;3.67;2.78;;;30.60;53.60;;;;;;4965977;28;90486;-84
2023/06/21 12:18:28;;;;;;;7.05;2.63;;;30.60;52.60;;;;;;4967196;28;92435;-84
2023/06/21 12:20:55;;;;;;;2.53;2.33;;;30.70;51.40;;;;;;4928305;28;91851;-85
2023/06/21 12:23:22;;;;;;;7.80;2.80;;;30.60;51.80;;;;;;4967902;28;87833;-85
2023/06/21 12:25:50;;;;;;;4.93;2.58;;;30.70;52.20;;;;;;4967408;28;89902;-84
2023/06/21 12:28:17;;;;;;;4.22;2.85;;;30.70;51.10;;;;;;4934634;28;91029;-84
2023/06/21 12:30:58;;;;;;;3.50;2.58;;;30.60;50.30;;;;;;4967770;28;91166;-89
2023/06/21 12:33:26;;;;;;;18.02;3.97;;;30.50;51.90;;;;;;4926634;28;87147;-89
2023/06/21 12:35:58;;;;;;;3.05;2.55;;;30.60;50.50;;;;;;4969382;28;89877;-91
2023/06/21 12:38:24;;;;;;;6.23;2.47;;;30.60;50.50;;;;;;4959327;28;90444;-89
2023/06/21 12:40:59;;;;;;;3.17;2.33;;;30.60;49.50;;;;;;4970806;28;90009;-90